Time;durP1;ratioP1;P1;durP2;ratioP2;P2;SDS_P1;SDS_P2;PMS_P1;PMS_P2;Temp;Humidity;BMP_temperature;BMP_pressure;BME280_temperature;BME280_humidity;BME280_pressure;Samples;Min_cycle;Max_cycle;Signal;HPM_P1;HPM_P2
2023/02/17 00:00:38;;;;;;;19.38;8.35;;;;;;;;;;5071187;28;20075;-74
2023/02/17 00:03:04;;;;;;;23.35;9.35;;;;;;;;;;5066241;28;20056;-74
2023/02/17 00:05:30;;;;;;;15.68;8.45;;;;;;;;;;5063683;28;20028;-74
2023/02/17 00:07:56;;;;;;;27.33;11.73;;;;;;;;;;5065809;28;20831;-74
2023/02/17 00:10:22;;;;;;;58.85;29.88;;;;;;;;;;5070855;28;20154;-74
2023/02/17 00:12:48;;;;;;;51.15;27.42;;;;;;;;;;5056310;28;20040;-74
2023/02/17 00:15:14;;;;;;;46.95;25.48;;;;;;;;;;5069239;28;20089;-74
2023/02/17 00:17:40;;;;;;;34.70;19.40;;;;;;;;;;5062746;28;20033;-74
2023/02/17 00:20:06;;;;;;;30.75;16.65;;;;;;;;;;5063011;28;20039;-74
2023/02/17 00:22:32;;;;;;;56.83;30.08;;;;;;;;;;5063364;28;20532;-74
2023/02/17 00:24:58;;;;;;;55.65;31.10;;;;;;;;;;5069120;28;20032;-74
2023/02/17 00:27:24;;;;;;;52.55;27.58;;;;;;;;;;5067915;28;20083;-74
2023/02/17 00:29:50;;;;;;;28.58;16.13;;;;;;;;;;5056933;28;20043;-74
2023/02/17 00:32:16;;;;;;;13.38;6.65;;;;;;;;;;5061028;28;20025;-74
2023/02/17 00:34:42;;;;;;;13.70;7.20;;;;;;;;;;5065520;28;20094;-74
2023/02/17 00:37:08;;;;;;;14.23;6.60;;;;;;;;;;5067413;28;20051;-74
2023/02/17 00:39:34;;;;;;;20.27;8.90;;;;;;;;;;5051051;28;20032;-74
2023/02/17 00:42:00;;;;;;;22.65;9.90;;;;;;;;;;5068147;28;20036;-74
2023/02/17 00:44:26;;;;;;;33.42;15.30;;;;;;;;;;5067901;28;20040;-74
2023/02/17 00:46:52;;;;;;;29.88;14.80;;;;;;;;;;5057631;28;20033;-74
2023/02/17 00:49:22;;;;;;;18.92;9.20;;;;;;;;;;5056973;28;20036;-74
2023/02/17 00:51:49;;;;;;;17.67;7.00;;;;;;;;;;5054080;28;20029;-74
2023/02/17 00:54:15;;;;;;;11.93;5.25;;;;;;;;;;5069454;28;20111;-74
2023/02/17 00:56:41;;;;;;;10.43;5.18;;;;;;;;;;5068833;28;20052;-74
2023/02/17 00:59:08;;;;;;;8.80;4.03;;;;;;;;;;5057415;28;20036;-74
2023/02/17 01:01:34;;;;;;;12.43;4.43;;;;;;;;;;5067475;28;20032;-74
2023/02/17 01:04:00;;;;;;;10.80;4.75;;;;;;;;;;5059669;28;20044;-74
2023/02/17 01:06:30;;;;;;;13.95;6.07;;;;;;;;;;5060261;28;20111;-74
2023/02/17 01:08:57;;;;;;;12.20;5.45;;;;;;;;;;5049999;28;20120;-74
2023/02/17 01:11:24;;;;;;;15.38;6.18;;;;;;;;;;5048829;28;20033;-74
2023/02/17 01:13:51;;;;;;;13.13;5.72;;;;;;;;;;5060527;28;20113;-74
2023/02/17 01:16:22;;;;;;;16.38;5.78;;;;;;;;;;5059434;28;20021;-74
2023/02/17 01:18:49;;;;;;;14.23;5.85;;;;;;;;;;5064996;28;20034;-74
2023/02/17 01:21:18;;;;;;;12.73;5.75;;;;;;;;;;5057552;28;20097;-74
2023/02/17 01:23:44;;;;;;;14.35;8.25;;;;;;;;;;5055609;28;20078;-74
2023/02/17 01:26:17;;;;;;;11.00;4.70;;;;;;;;;;5066761;28;20099;-74
2023/02/17 01:28:43;;;;;;;11.82;5.22;;;;;;;;;;5058845;28;20041;-75
2023/02/17 01:31:10;;;;;;;11.52;4.68;;;;;;;;;;5068247;28;20032;-74
2023/02/17 01:33:36;;;;;;;11.73;4.60;;;;;;;;;;5053390;28;20040;-74
2023/02/17 01:36:06;;;;;;;11.80;4.90;;;;;;;;;;5065293;28;20027;-74
2023/02/17 01:38:33;;;;;;;14.57;5.25;;;;;;;;;;5069349;28;20040;-74
2023/02/17 01:40:59;;;;;;;6.95;3.55;;;;;;;;;;5064583;28;20036;-74
2023/02/17 01:43:25;;;;;;;11.00;3.90;;;;;;;;;;5051240;28;20041;-74
2023/02/17 01:45:52;;;;;;;13.20;4.95;;;;;;;;;;5063741;28;20133;-74
2023/02/17 01:48:22;;;;;;;9.00;4.05;;;;;;;;;;5062017;28;20043;-74
2023/02/17 01:50:51;;;;;;;13.00;4.65;;;;;;;;;;5063542;28;20091;-74
2023/02/17 01:53:20;;;;;;;9.75;4.20;;;;;;;;;;5054125;28;20086;-74
2023/02/17 01:55:47;;;;;;;9.63;4.72;;;;;;;;;;5069138;28;20025;-74
2023/02/17 01:58:15;;;;;;;11.05;4.18;;;;;;;;;;5063633;28;20762;-74
2023/02/17 02:00:42;;;;;;;11.50;4.53;;;;;;;;;;5063179;28;20033;-74
2023/02/17 02:03:10;;;;;;;7.80;2.97;;;;;;;;;;5066589;28;20503;-74
2023/02/17 02:05:37;;;;;;;9.20;2.97;;;;;;;;;;5058668;28;20032;-74
2023/02/17 02:08:03;;;;;;;9.40;3.65;;;;;;;;;;5065754;28;20051;-74
2023/02/17 02:10:29;;;;;;;10.32;4.38;;;;;;;;;;5049430;28;20021;-74
2023/02/17 02:12:55;;;;;;;10.32;3.65;;;;;;;;;;5063778;28;20800;-74
2023/02/17 02:15:22;;;;;;;9.85;4.05;;;;;;;;;;5057641;28;20035;-74
2023/02/17 02:18:03;;;;;;;12.13;4.88;;;;;;;;;;5065839;28;20032;-74
2023/02/17 02:20:32;;;;;;;12.95;4.53;;;;;;;;;;5069323;28;20516;-74
2023/02/17 02:23:04;;;;;;;8.93;4.40;;;;;;;;;;5067794;28;20035;-74
2023/02/17 02:25:45;;;;;;;9.35;3.42;;;;;;;;;;5060590;28;20030;-74
2023/02/17 02:28:21;;;;;;;9.30;4.13;;;;;;;;;;5064888;28;20146;-74
2023/02/17 02:30:56;;;;;;;12.63;4.32;;;;;;;;;;5056544;28;20025;-73
2023/02/17 02:33:41;;;;;;;10.82;5.68;;;;;;;;;;5064443;28;20068;-74
2023/02/17 02:36:23;;;;;;;16.42;7.68;;;;;;;;;;5057601;28;20096;-74
2023/02/17 02:39:00;;;;;;;14.05;6.68;;;;;;;;;;5060753;28;20427;-74
2023/02/17 02:41:56;;;;;;;14.30;5.50;;;;;;;;;;5063084;28;20041;-74
2023/02/17 02:44:22;;;;;;;15.00;4.82;;;;;;;;;;5038893;28;20463;-74
2023/02/17 02:46:59;;;;;;;9.38;4.28;;;;;;;;;;5059468;28;20044;-74
2023/02/17 02:49:26;;;;;;;9.68;4.20;;;;;;;;;;5059807;28;20029;-74
2023/02/17 02:51:55;;;;;;;10.98;3.35;;;;;;;;;;5053440;28;20039;-74
2023/02/17 02:54:21;;;;;;;7.20;3.22;;;;;;;;;;5057826;28;20039;-74
2023/02/17 02:56:56;;;;;;;8.23;3.08;;;;;;;;;;5068062;28;20032;-74
2023/02/17 02:59:41;;;;;;;7.47;3.30;;;;;;;;;;5063638;28;20489;-74
2023/02/17 03:02:22;;;;;;;9.43;3.17;;;;;;;;;;5052817;28;20037;-74
2023/02/17 03:05:04;;;;;;;8.80;3.42;;;;;;;;;;5055127;28;21009;-74
2023/02/17 03:07:42;;;;;;;7.07;3.08;;;;;;;;;;5062341;28;20466;-74
2023/02/17 03:10:08;;;;;;;9.68;4.63;;;;;;;;;;5060780;28;20490;-74
2023/02/17 03:12:36;;;;;;;10.52;3.97;;;;;;;;;;5050288;28;20385;-74
2023/02/17 03:15:05;;;;;;;10.10;4.13;;;;;;;;;;5069080;28;20032;-75
2023/02/17 03:17:33;;;;;;;11.70;3.72;;;;;;;;;;5060626;28;20536;-74
2023/02/17 03:20:02;;;;;;;10.82;3.08;;;;;;;;;;5063121;28;20033;-74
2023/02/17 03:22:31;;;;;;;7.03;2.90;;;;;;;;;;5069044;28;20382;-74
2023/02/17 03:24:58;;;;;;;8.38;3.50;;;;;;;;;;5066755;28;20036;-74
2023/02/17 03:27:24;;;;;;;11.02;4.30;;;;;;;;;;5056009;28;20056;-74
2023/02/17 03:29:50;;;;;;;9.40;3.20;;;;;;;;;;5067952;28;20075;-74
2023/02/17 03:32:16;;;;;;;10.82;3.75;;;;;;;;;;5060720;28;20053;-74
2023/02/17 03:34:42;;;;;;;13.18;4.90;;;;;;;;;;5068656;28;20032;-74
2023/02/17 03:37:08;;;;;;;19.73;8.00;;;;;;;;;;5064215;28;20028;-74
2023/02/17 03:39:34;;;;;;;14.30;6.20;;;;;;;;;;5064142;28;20489;-74
2023/02/17 03:42:00;;;;;;;10.00;4.25;;;;;;;;;;5068029;28;20047;-74
2023/02/17 03:44:26;;;;;;;9.38;2.85;;;;;;;;;;5054924;28;20377;-74
2023/02/17 03:46:52;;;;;;;10.20;3.22;;;;;;;;;;5054980;28;20041;-74
2023/02/17 03:49:18;;;;;;;8.55;3.33;;;;;;;;;;5054671;28;20031;-74
2023/02/17 03:51:44;;;;;;;10.25;2.90;;;;;;;;;;5060220;28;20032;-74
2023/02/17 03:54:10;;;;;;;13.10;3.60;;;;;;;;;;5051880;28;20036;-74
2023/02/17 03:56:36;;;;;;;9.38;4.13;;;;;;;;;;5064851;28;20834;-74
2023/02/17 03:59:03;;;;;;;8.95;3.58;;;;;;;;;;5041538;28;20028;-74
2023/02/17 04:01:29;;;;;;;11.00;4.13;;;;;;;;;;5065044;28;20436;-74
2023/02/17 04:03:55;;;;;;;10.63;4.57;;;;;;;;;;5068951;28;20079;-74
2023/02/17 04:06:21;;;;;;;10.68;3.58;;;;;;;;;;5059773;28;20056;-74
2023/02/17 04:08:47;;;;;;;10.60;3.88;;;;;;;;;;5071033;28;20077;-74
2023/02/17 04:11:13;;;;;;;8.70;3.67;;;;;;;;;;5050848;28;20121;-74
2023/02/17 04:13:39;;;;;;;10.93;4.60;;;;;;;;;;5061429;28;20033;-74
2023/02/17 04:16:06;;;;;;;9.35;4.00;;;;;;;;;;5062248;28;20422;-75
2023/02/17 04:18:33;;;;;;;12.90;4.05;;;;;;;;;;5057668;28;20098;-74
2023/02/17 04:20:58;;;;;;;14.00;3.60;;;;;;;;;;5065271;28;20040;-74
2023/02/17 04:23:24;;;;;;;9.63;4.32;;;;;;;;;;5066804;28;20036;-74
2023/02/17 04:25:51;;;;;;;11.57;3.50;;;;;;;;;;5066253;28;20731;-74
2023/02/17 04:28:16;;;;;;;8.20;3.13;;;;;;;;;;5053327;28;20732;-74
2023/02/17 04:30:47;;;;;;;12.07;4.28;;;;;;;;;;5068942;28;20033;-74
2023/02/17 04:33:13;;;;;;;9.20;3.63;;;;;;;;;;5064470;28;20470;-74
2023/02/17 04:35:39;;;;;;;15.50;3.60;;;;;;;;;;5068879;28;20029;-74
2023/02/17 04:38:06;;;;;;;11.32;4.30;;;;;;;;;;5067302;28;20037;-74
2023/02/17 04:40:32;;;;;;;10.82;4.43;;;;;;;;;;5055334;28;20060;-74
2023/02/17 04:42:58;;;;;;;12.02;4.70;;;;;;;;;;5067487;28;20040;-74
2023/02/17 04:45:24;;;;;;;9.23;4.22;;;;;;;;;;5069395;28;20037;-74
2023/02/17 04:47:50;;;;;;;12.05;3.90;;;;;;;;;;5066051;28;20109;-74
2023/02/17 04:50:16;;;;;;;12.10;4.40;;;;;;;;;;5069434;28;20032;-74
2023/02/17 04:52:42;;;;;;;11.40;3.88;;;;;;;;;;5069660;28;20048;-74
2023/02/17 04:55:09;;;;;;;12.13;4.47;;;;;;;;;;5057060;28;20036;-74
2023/02/17 04:57:35;;;;;;;12.73;4.68;;;;;;;;;;5064963;28;20041;-74
2023/02/17 05:00:01;;;;;;;12.32;4.20;;;;;;;;;;5057864;28;20075;-74
2023/02/17 05:02:27;;;;;;;15.27;5.07;;;;;;;;;;5055817;28;20088;-74
2023/02/17 05:04:53;;;;;;;13.20;5.07;;;;;;;;;;5065007;28;20481;-74
2023/02/17 05:07:20;;;;;;;14.57;5.93;;;;;;;;;;5061363;28;20036;-74
2023/02/17 05:09:46;;;;;;;15.73;5.03;;;;;;;;;;5066381;28;20041;-74
2023/02/17 05:12:12;;;;;;;19.48;9.15;;;;;;;;;;5067133;28;20044;-74
2023/02/17 05:14:38;;;;;;;19.50;10.48;;;;;;;;;;5069257;28;20486;-74
2023/02/17 05:17:04;;;;;;;18.80;9.93;;;;;;;;;;5060655;28;20032;-74
2023/02/17 05:19:30;;;;;;;16.05;9.27;;;;;;;;;;5065098;28;20032;-74
2023/02/17 05:21:56;;;;;;;15.38;7.65;;;;;;;;;;5066638;28;20036;-74
2023/02/17 05:24:22;;;;;;;15.20;8.10;;;;;;;;;;5063592;28;20481;-74
2023/02/17 05:26:48;;;;;;;28.85;12.55;;;;;;;;;;5059838;28;20036;-74
2023/02/17 05:29:14;;;;;;;23.88;13.27;;;;;;;;;;5058499;28;20700;-74
2023/02/17 05:31:40;;;;;;;29.77;14.15;;;;;;;;;;5054347;28;20810;-74
2023/02/17 05:34:06;;;;;;;19.23;9.40;;;;;;;;;;5064070;28;20045;-74
2023/02/17 05:36:32;;;;;;;21.17;8.15;;;;;;;;;;5050062;28;20036;-74
2023/02/17 05:38:58;;;;;;;12.98;5.75;;;;;;;;;;5059665;28;20482;-74
2023/02/17 05:41:24;;;;;;;26.45;10.98;;;;;;;;;;5063073;28;20094;-74
2023/02/17 05:43:50;;;;;;;25.73;10.77;;;;;;;;;;5070206;28;20116;-74
2023/02/17 05:46:16;;;;;;;26.65;11.32;;;;;;;;;;5068947;28;20028;-74
2023/02/17 05:48:43;;;;;;;24.70;12.30;;;;;;;;;;5050982;28;20040;-74
2023/02/17 05:51:09;;;;;;;46.22;24.40;;;;;;;;;;5062633;28;20024;-74
2023/02/17 05:53:35;;;;;;;40.33;20.48;;;;;;;;;;5063774;28;20028;-74
2023/02/17 05:56:01;;;;;;;34.10;17.63;;;;;;;;;;5064681;28;20493;-74
2023/02/17 05:58:27;;;;;;;36.85;15.63;;;;;;;;;;5056756;28;20032;-74
2023/02/17 06:00:53;;;;;;;48.17;18.52;;;;;;;;;;5062811;28;20040;-74
2023/02/17 06:03:19;;;;;;;35.85;15.48;;;;;;;;;;5044908;28;20045;-74
2023/02/17 06:05:45;;;;;;;47.65;19.48;;;;;;;;;;5032494;28;20055;-74
2023/02/17 06:08:11;;;;;;;34.67;15.25;;;;;;;;;;5032103;28;20501;-74
2023/02/17 06:10:37;;;;;;;91.97;36.92;;;;;;;;;;5043366;28;20029;-74
2023/02/17 06:13:03;;;;;;;53.78;20.98;;;;;;;;;;5046893;28;20049;-74
2023/02/17 06:15:29;;;;;;;118.90;56.80;;;;;;;;;;5046935;28;20452;-74
2023/02/17 06:17:55;;;;;;;49.85;23.58;;;;;;;;;;5038152;28;20033;-74
2023/02/17 06:20:21;;;;;;;22.85;10.05;;;;;;;;;;5041478;28;20033;-74
2023/02/17 06:22:47;;;;;;;16.10;5.93;;;;;;;;;;5035543;28;20040;-74
2023/02/17 06:25:13;;;;;;;21.70;9.23;;;;;;;;;;5046092;28;20017;-74
2023/02/17 06:27:41;;;;;;;18.73;5.70;;;;;;;;;;5042667;28;20037;-74
2023/02/17 06:30:07;;;;;;;22.80;5.43;;;;;;;;;;5036958;28;20103;-74
2023/02/17 06:32:33;;;;;;;24.60;5.95;;;;;;;;;;5042630;28;20121;-74
2023/02/17 06:34:59;;;;;;;47.83;23.60;;;;;;;;;;5041748;28;20064;-74
2023/02/17 06:37:25;;;;;;;105.00;53.67;;;;;;;;;;5037904;28;20061;-74
2023/02/17 06:39:51;;;;;;;55.53;26.10;;;;;;;;;;5043743;28;20033;-74
2023/02/17 06:42:18;;;;;;;45.53;18.17;;;;;;;;;;5041270;28;20039;-74
2023/02/17 06:44:44;;;;;;;36.67;15.15;;;;;;;;;;5035910;28;20112;-74
2023/02/17 06:47:10;;;;;;;25.23;9.40;;;;;;;;;;5044267;28;20069;-73
2023/02/17 06:49:36;;;;;;;19.58;8.73;;;;;;;;;;5044542;28;20032;-74
2023/02/17 06:52:02;;;;;;;63.78;22.38;;;;;;;;;;5044977;28;20041;-73
2023/02/17 06:54:28;;;;;;;38.13;15.90;;;;;;;;;;5046122;28;20028;-73
2023/02/17 06:56:54;;;;;;;39.20;14.75;;;;;;;;;;5045702;28;20063;-74
2023/02/17 06:59:20;;;;;;;32.83;14.43;;;;;;;;;;5044993;28;20036;-74
2023/02/17 07:01:48;;;;;;;33.65;15.35;;;;;;;;;;5044662;28;20044;-74
2023/02/17 07:04:14;;;;;;;42.28;16.38;;;;;;;;;;5066676;28;20047;-74
2023/02/17 07:06:40;;;;;;;37.67;15.80;;;;;;;;;;5066775;28;20041;-73
2023/02/17 07:09:06;;;;;;;39.70;16.63;;;;;;;;;;5070875;28;20044;-74
2023/02/17 07:11:32;;;;;;;49.78;20.85;;;;;;;;;;5063525;28;20057;-73
2023/02/17 07:13:59;;;;;;;37.20;14.85;;;;;;;;;;5061907;28;20091;-74
2023/02/17 07:16:25;;;;;;;29.67;9.45;;;;;;;;;;5062104;28;20040;-74
2023/02/17 07:18:51;;;;;;;25.17;10.20;;;;;;;;;;5070180;28;20037;-74
2023/02/17 07:21:17;;;;;;;22.48;9.70;;;;;;;;;;5063617;28;20036;-73
2023/02/17 07:23:43;;;;;;;23.73;9.23;;;;;;;;;;5065510;28;20112;-74
2023/02/17 07:26:10;;;;;;;25.38;10.05;;;;;;;;;;5061754;28;20064;-75
2023/02/17 07:28:37;;;;;;;30.75;11.38;;;;;;;;;;5064125;28;20527;-74
2023/02/17 07:31:06;;;;;;;27.92;11.88;;;;;;;;;;5062809;28;20043;-75
2023/02/17 07:33:32;;;;;;;22.65;8.57;;;;;;;;;;5055829;28;20037;-74
2023/02/17 07:35:59;;;;;;;20.50;9.15;;;;;;;;;;5060708;28;20090;-74
2023/02/17 07:38:24;;;;;;;15.07;6.80;;;;;;;;;;5066297;28;20041;-74
2023/02/17 07:40:51;;;;;;;13.65;5.90;;;;;;;;;;5061507;28;20032;-75
2023/02/17 07:43:17;;;;;;;19.63;6.88;;;;;;;;;;5059424;28;20037;-74
2023/02/17 07:45:43;;;;;;;18.73;7.60;;;;;;;;;;5065346;28;20032;-73
2023/02/17 07:48:09;;;;;;;19.50;7.80;;;;;;;;;;5066297;28;20423;-73
2023/02/17 07:50:34;;;;;;;26.63;9.13;;;;;;;;;;5057916;28;20043;-74
2023/02/17 07:53:00;;;;;;;24.38;10.38;;;;;;;;;;5059014;28;20040;-74
2023/02/17 07:55:27;;;;;;;19.98;8.98;;;;;;;;;;5060549;28;20017;-73
2023/02/17 07:57:53;;;;;;;23.50;8.82;;;;;;;;;;5058657;28;20043;-72
2023/02/17 08:00:19;;;;;;;13.77;7.20;;;;;;;;;;5063979;28;20025;-73
2023/02/17 08:02:47;;;;;;;9.98;3.80;;;;;;;;;;5058637;28;20056;-74
2023/02/17 08:05:13;;;;;;;10.55;4.10;;;;;;;;;;5061600;28;20024;-74
2023/02/17 08:07:39;;;;;;;19.05;7.68;;;;;;;;;;5060989;28;20082;-73
2023/02/17 08:15:35;;;;;;;25.30;11.48;;;;;;;;;;5064336;28;20085;-73
2023/02/17 08:18:03;;;;;;;34.75;15.30;;;;;;;;;;5065071;28;20040;-74
2023/02/17 08:20:29;;;;;;;29.70;13.85;;;;;;;;;;5062576;28;20023;-74
2023/02/17 08:22:55;;;;;;;22.98;13.80;;;;;;;;;;5062981;28;20040;-74
2023/02/17 08:25:21;;;;;;;24.98;11.32;;;;;;;;;;5061560;28;20047;-73
2023/02/17 08:27:47;;;;;;;17.40;4.57;;;;;;;;;;5058975;28;20082;-74
2023/02/17 08:30:13;;;;;;;10.93;3.85;;;;;;;;;;5066411;28;20084;-73
2023/02/17 08:32:39;;;;;;;19.33;8.48;;;;;;;;;;5060979;28;20060;-73
2023/02/17 08:35:06;;;;;;;31.95;15.45;;;;;;;;;;5063674;28;20063;-73
2023/02/17 08:37:32;;;;;;;37.45;17.80;;;;;;;;;;5063672;28;20450;-73
2023/02/17 08:39:58;;;;;;;40.05;17.40;;;;;;;;;;5058603;28;20774;-73
2023/02/17 08:42:25;;;;;;;29.40;12.05;;;;;;;;;;5057090;28;20046;-73
2023/02/17 08:44:51;;;;;;;25.15;11.38;;;;;;;;;;5066180;28;20031;-73
2023/02/17 08:47:17;;;;;;;20.45;9.32;;;;;;;;;;5061538;28;20391;-73
2023/02/17 08:49:43;;;;;;;20.90;8.57;;;;;;;;;;5063821;28;20033;-73
2023/02/17 08:52:09;;;;;;;20.65;6.53;;;;;;;;;;5060933;28;20576;-74
2023/02/17 08:54:36;;;;;;;18.42;6.53;;;;;;;;;;5064189;28;20024;-73
2023/02/17 08:57:02;;;;;;;23.77;7.25;;;;;;;;;;5058739;28;20471;-73
2023/02/17 08:59:28;;;;;;;23.00;7.68;;;;;;;;;;5063435;28;20036;-73
2023/02/17 09:01:54;;;;;;;18.25;7.70;;;;;;;;;;5061303;28;20143;-73
2023/02/17 09:04:21;;;;;;;16.33;5.40;;;;;;;;;;5061181;28;20869;-73
2023/02/17 09:06:51;;;;;;;10.95;4.43;;;;;;;;;;5058591;28;20047;-73
2023/02/17 09:09:18;;;;;;;14.60;4.63;;;;;;;;;;5056867;28;20071;-73
2023/02/17 09:11:45;;;;;;;11.77;4.90;;;;;;;;;;5057712;28;20079;-73
2023/02/17 09:14:11;;;;;;;25.40;14.52;;;;;;;;;;5062142;28;20838;-74
2023/02/17 09:16:37;;;;;;;14.95;6.07;;;;;;;;;;5059599;28;20054;-74
2023/02/17 09:19:03;;;;;;;16.38;5.95;;;;;;;;;;5063793;28;20034;-74
2023/02/17 09:21:30;;;;;;;12.05;5.88;;;;;;;;;;5056472;28;20588;-74
2023/02/17 09:23:56;;;;;;;14.45;5.10;;;;;;;;;;5061785;28;20067;-74
2023/02/17 09:26:22;;;;;;;9.13;3.75;;;;;;;;;;5061009;28;20060;-73
2023/02/17 09:28:48;;;;;;;11.63;3.55;;;;;;;;;;5057299;28;20037;-74
2023/02/17 09:31:17;;;;;;;30.20;8.93;;;;;;;;;;5066263;28;20048;-74
2023/02/17 09:33:43;;;;;;;23.65;7.18;;;;;;;;;;5058203;28;20058;-74
2023/02/17 09:36:11;;;;;;;23.38;7.53;;;;;;;;;;5055837;28;20104;-73
2023/02/17 09:38:38;;;;;;;14.57;4.75;;;;;;;;;;5050769;28;20043;-73
2023/02/17 09:41:25;;;;;;;12.32;4.85;;;;;;;;;;5064523;28;20094;-74
2023/02/17 09:43:51;;;;;;;22.17;8.38;;;;;;;;;;5058687;28;20037;-74
2023/02/17 09:46:27;;;;;;;15.23;4.75;;;;;;;;;;5060283;28;20618;-74
2023/02/17 09:48:55;;;;;;;14.35;4.30;;;;;;;;;;5061375;28;20032;-74
2023/02/17 09:51:37;;;;;;;13.43;3.65;;;;;;;;;;5063919;28;20036;-74
2023/02/17 09:54:17;;;;;;;8.13;2.95;;;;;;;;;;5059389;28;20029;-74
2023/02/17 09:56:45;;;;;;;13.48;5.18;;;;;;;;;;5059212;28;20029;-74
2023/02/17 09:59:15;;;;;;;13.73;3.78;;;;;;;;;;5060558;28;20125;-74
2023/02/17 10:01:42;;;;;;;13.27;3.65;;;;;;;;;;5056873;28;20036;-74
2023/02/17 10:04:13;;;;;;;12.02;4.00;;;;;;;;;;5059661;28;20049;-74
2023/02/17 10:06:51;;;;;;;14.38;2.92;;;;;;;;;;5059757;28;20127;-74
2023/02/17 10:09:23;;;;;;;14.75;3.65;;;;;;;;;;5054035;28;20083;-74
2023/02/17 10:11:55;;;;;;;7.47;2.70;;;;;;;;;;5064524;28;20537;-74
2023/02/17 10:14:34;;;;;;;11.02;3.08;;;;;;;;;;5054873;28;20025;-74
2023/02/17 10:17:06;;;;;;;10.60;3.28;;;;;;;;;;5062980;28;20040;-74
2023/02/17 10:19:35;;;;;;;10.98;4.20;;;;;;;;;;5058548;28;20100;-74
2023/02/17 10:22:14;;;;;;;17.48;6.47;;;;;;;;;;5058712;28;20028;-75
2023/02/17 10:24:40;;;;;;;27.90;10.52;;;;;;;;;;5061144;28;20029;-75
2023/02/17 10:27:17;;;;;;;22.00;9.63;;;;;;;;;;5062242;28;20902;-74
2023/02/17 10:30:01;;;;;;;17.40;7.57;;;;;;;;;;5060027;28;20043;-74
2023/02/17 10:32:27;;;;;;;19.98;5.43;;;;;;;;;;5058370;28;20036;-74
2023/02/17 10:35:11;;;;;;;8.18;3.30;;;;;;;;;;5058243;28;20029;-75
2023/02/17 10:37:47;;;;;;;8.20;2.30;;;;;;;;;;5056580;28;20028;-75
2023/02/17 10:40:22;;;;;;;7.90;2.28;;;;;;;;;;5058986;28;20069;-74
2023/02/17 10:42:50;;;;;;;7.13;2.17;;;;;;;;;;5060384;28;20083;-74
2023/02/17 10:45:19;;;;;;;4.15;1.70;;;;;;;;;;5058609;28;20768;-74
2023/02/17 10:47:45;;;;;;;6.88;1.50;;;;;;;;;;5058498;28;20032;-74
2023/02/17 10:50:18;;;;;;;4.25;1.13;;;;;;;;;;5057845;28;20029;-74
2023/02/17 10:52:44;;;;;;;6.20;1.38;;;;;;;;;;5060711;28;20024;-74
2023/02/17 10:55:19;;;;;;;8.93;1.80;;;;;;;;;;5061259;28;20119;-74
2023/02/17 10:57:47;;;;;;;8.02;2.45;;;;;;;;;;5058170;28;20033;-74
2023/02/17 11:00:17;;;;;;;7.65;1.63;;;;;;;;;;5051888;28;20143;-74
2023/02/17 11:02:44;;;;;;;4.68;1.50;;;;;;;;;;5058348;28;20136;-74
2023/02/17 11:05:44;;;;;;;5.18;1.40;;;;;;;;;;5059785;28;20028;-74
2023/02/17 11:08:30;;;;;;;4.22;1.25;;;;;;;;;;5002716;28;20094;-74
2023/02/17 11:11:02;;;;;;;5.55;1.73;;;;;;;;;;5050600;28;20469;-74
2023/02/17 11:13:33;;;;;;;8.60;1.43;;;;;;;;;;5061949;28;20510;-74
2023/02/17 11:15:59;;;;;;;4.38;1.48;;;;;;;;;;5060530;28;20321;-75
2023/02/17 11:18:27;;;;;;;7.45;2.10;;;;;;;;;;5063815;28;20047;-74
2023/02/17 11:21:00;;;;;;;12.70;1.83;;;;;;;;;;5057255;28;20397;-74
2023/02/17 11:23:26;;;;;;;6.55;2.22;;;;;;;;;;5062917;28;20033;-75
2023/02/17 11:26:14;;;;;;;5.85;1.95;;;;;;;;;;5061259;28;20043;-74
2023/02/17 11:28:40;;;;;;;5.60;1.55;;;;;;;;;;5058019;28;20036;-74
2023/02/17 11:31:08;;;;;;;5.78;1.60;;;;;;;;;;5054863;28;20091;-74
2023/02/17 11:33:38;;;;;;;5.20;1.30;;;;;;;;;;5066345;28;20024;-74
2023/02/17 11:36:05;;;;;;;6.13;1.20;;;;;;;;;;5062449;28;20029;-74
2023/02/17 11:38:42;;;;;;;11.00;1.20;;;;;;;;;;5058806;28;20033;-75
2023/02/17 11:41:09;;;;;;;6.07;1.50;;;;;;;;;;5048850;28;20464;-74
2023/02/17 11:43:36;;;;;;;6.85;1.40;;;;;;;;;;5067523;28;20031;-74
2023/02/17 11:46:14;;;;;;;6.43;1.50;;;;;;;;;;5065616;28;20059;-75
2023/02/17 11:48:59;;;;;;;4.18;1.00;;;;;;;;;;5059005;28;20037;-75
2023/02/17 11:51:33;;;;;;;4.68;1.40;;;;;;;;;;5060589;28;20055;-74
2023/02/17 11:54:11;;;;;;;7.43;1.75;;;;;;;;;;5059488;28;20029;-74
2023/02/17 11:56:38;;;;;;;5.80;1.67;;;;;;;;;;5061397;28;20790;-75
2023/02/17 11:59:20;;;;;;;5.88;1.73;;;;;;;;;;5065434;28;20033;-74
2023/02/17 12:01:58;;;;;;;7.35;1.88;;;;;;;;;;5059240;28;20043;-74
2023/02/17 12:04:29;;;;;;;9.32;2.00;;;;;;;;;;5059410;28;20102;-74
2023/02/17 12:06:58;;;;;;;7.93;1.67;;;;;;;;;;5060014;28;20798;-74
2023/02/17 12:09:24;;;;;;;9.23;2.58;;;;;;;;;;5061301;28;20040;-75
2023/02/17 12:12:06;;;;;;;5.90;1.67;;;;;;;;;;5066318;28;20056;-74
2023/02/17 12:14:51;;;;;;;8.18;2.25;;;;;;;;;;5060178;28;20039;-74
2023/02/17 12:17:23;;;;;;;3.88;1.42;;;;;;;;;;5058978;28;20040;-74
2023/02/17 12:20:27;;;;;;;7.20;1.70;;;;;;;;;;5065488;28;20035;-74
2023/02/17 12:23:02;;;;;;;7.38;1.52;;;;;;;;;;4973420;28;20047;-74
2023/02/17 12:25:30;;;;;;;5.53;1.33;;;;;;;;;;4963375;28;20069;-74
2023/02/17 12:27:59;;;;;;;9.43;1.73;;;;;;;;;;5012124;28;20077;-74
2023/02/17 12:30:44;;;;;;;5.53;1.63;;;;;;;;;;5055479;28;20037;-74
2023/02/17 12:33:26;;;;;;;7.25;1.70;;;;;;;;;;5059385;28;20037;-74
2023/02/17 12:35:54;;;;;;;5.00;1.10;;;;;;;;;;5064665;28;20043;-75
2023/02/17 12:38:25;;;;;;;8.38;1.80;;;;;;;;;;5062403;28;20037;-74
2023/02/17 12:40:53;;;;;;;8.00;2.25;;;;;;;;;;5059312;28;20484;-75
2023/02/17 12:43:27;;;;;;;6.97;2.22;;;;;;;;;;5059791;28;20040;-74
2023/02/17 12:45:55;;;;;;;7.10;2.08;;;;;;;;;;5061491;28;20086;-75
2023/02/17 12:48:33;;;;;;;7.53;2.30;;;;;;;;;;5061738;28;20408;-74
2023/02/17 12:51:04;;;;;;;6.82;1.70;;;;;;;;;;5058899;28;20020;-75
2023/02/17 12:53:39;;;;;;;6.75;1.77;;;;;;;;;;5063703;28;20082;-75
2023/02/17 12:56:07;;;;;;;6.30;1.48;;;;;;;;;;5057281;28;20398;-75
2023/02/17 12:58:34;;;;;;;8.35;1.88;;;;;;;;;;5063277;28;20761;-74
2023/02/17 13:01:04;;;;;;;6.63;2.13;;;;;;;;;;5064138;28;20401;-74
2023/02/17 13:03:34;;;;;;;9.45;1.90;;;;;;;;;;5059249;28;20518;-74
2023/02/17 13:06:06;;;;;;;7.45;1.77;;;;;;;;;;5059752;28;20078;-74
2023/02/17 13:08:32;;;;;;;;;;;;;;;;;;5060995;28;20090;-75
2023/02/17 13:11:03;;;;;;;9.05;1.88;;;;;;;;;;5064701;28;19912;-74
2023/02/17 13:13:31;;;;;;;8.33;1.90;;;;;;;;;;5063962;28;20075;-74
2023/02/17 13:16:06;;;;;;;13.27;2.60;;;;;;;;;;5063993;28;20274;-74
2023/02/17 13:18:33;;;;;;;9.57;1.85;;;;;;;;;;5061137;28;20040;-74
2023/02/17 13:21:01;;;;;;;7.50;1.88;;;;;;;;;;5065320;28;20386;-74
2023/02/17 13:23:28;;;;;;;9.27;1.98;;;;;;;;;;5065593;28;20113;-75
2023/02/17 13:26:05;;;;;;;10.90;2.95;;;;;;;;;;5060129;28;20056;-75
2023/02/17 13:28:36;;;;;;;8.73;2.33;;;;;;;;;;5056709;28;20071;-74
2023/02/17 13:31:15;;;;;;;7.88;1.48;;;;;;;;;;5057951;28;20078;-75
2023/02/17 13:33:48;;;;;;;9.38;2.08;;;;;;;;;;5064888;28;20039;-74
2023/02/17 13:36:16;;;;;;;8.23;1.88;;;;;;;;;;5058380;28;20416;-75
2023/02/17 13:38:51;;;;;;;8.50;2.75;;;;;;;;;;5060975;28;20039;-74
2023/02/17 13:41:17;;;;;;;7.18;1.48;;;;;;;;;;5060402;28;20029;-75
2023/02/17 13:43:43;;;;;;;7.63;1.50;;;;;;;;;;5059019;28;20033;-75
2023/02/17 13:46:23;;;;;;;8.00;1.73;;;;;;;;;;5061409;28;20046;-75
2023/02/17 13:48:57;;;;;;;6.95;1.75;;;;;;;;;;5062690;28;20028;-75
2023/02/17 13:51:27;;;;;;;8.00;1.92;;;;;;;;;;5060445;28;20626;-74
2023/02/17 13:53:53;;;;;;;9.55;1.40;;;;;;;;;;5063465;28;20035;-75
2023/02/17 13:56:24;;;;;;;8.02;1.70;;;;;;;;;;5060140;28;20025;-74
2023/02/17 13:58:50;;;;;;;6.40;2.15;;;;;;;;;;5063376;28;20032;-75
2023/02/17 14:01:18;;;;;;;11.60;2.63;;;;;;;;;;5059827;28;20032;-74
2023/02/17 14:03:53;;;;;;;9.10;1.58;;;;;;;;;;5064291;28;20047;-74
2023/02/17 14:06:41;;;;;;;7.68;1.63;;;;;;;;;;5057661;28;20029;-75
2023/02/17 14:09:21;;;;;;;8.43;1.42;;;;;;;;;;5059608;28;20067;-75
2023/02/17 14:11:48;;;;;;;7.47;1.55;;;;;;;;;;5056975;28;20035;-75
2023/02/17 14:14:14;;;;;;;6.43;2.10;;;;;;;;;;5055430;28;20021;-75
2023/02/17 14:16:44;;;;;;;10.00;2.55;;;;;;;;;;5054231;28;20040;-75
2023/02/17 14:19:12;;;;;;;11.30;2.33;;;;;;;;;;5059826;28;20031;-75
2023/02/17 14:21:58;;;;;;;9.63;1.80;;;;;;;;;;5060403;28;20063;-75
2023/02/17 14:24:26;;;;;;;6.72;2.30;;;;;;;;;;5055721;28;20082;-74
2023/02/17 14:26:55;;;;;;;12.95;2.10;;;;;;;;;;5058194;28;20036;-74
2023/02/17 14:29:21;;;;;;;5.50;1.50;;;;;;;;;;5062241;28;20046;-75
2023/02/17 14:31:49;;;;;;;7.32;1.80;;;;;;;;;;5060347;28;20745;-75
2023/02/17 14:34:29;;;;;;;5.90;1.50;;;;;;;;;;5061155;28;20063;-75
2023/02/17 14:37:06;;;;;;;9.13;1.92;;;;;;;;;;5058467;28;20082;-75
2023/02/17 14:39:32;;;;;;;9.23;2.20;;;;;;;;;;5056842;28;20312;-75
2023/02/17 14:41:58;;;;;;;8.25;1.70;;;;;;;;;;5052017;28;20036;-75
2023/02/17 14:44:24;;;;;;;10.63;2.17;;;;;;;;;;5062671;28;20028;-74
2023/02/17 14:46:50;;;;;;;7.35;1.77;;;;;;;;;;5059935;28;20072;-75
2023/02/17 14:49:16;;;;;;;12.57;2.30;;;;;;;;;;5055556;28;20029;-75